Terminal Aerodrome Forecast
Issued by NWS North Platte, NE

Home | Current Version | Previous Version | Text Only | Print | Product List | Glossary Off
Versions: 1 2 3 4 5 6 7 8 9 10 11 12 13 14 15 16 17 18 19

058
FTUS43 KLBF 272335
TAFVTN
TAF
KVTN 272335Z 2800/2824 VRB06KT P6SM SCT040
     FM280300 VRB03KT P6SM VCSH BKN040
     FM280800 35004KT P6SM SCT025 OVC040
     FM281500 33007KT P6SM SCT050 SCT100=

USA.gov is the U.S. government's official web portal to all federal, state and local government web resources and services.